sensor_id;sensor_type;location;lat;lon;timestamp;P1;durP1;ratioP1;P2;durP2;ratioP2
52186;SDS011;38161;53.020;6.598;2023-12-20T00:01:24;13.03;;;2.53;;
52186;SDS011;38161;53.020;6.598;2023-12-20T00:03:49;12.15;;;3.97;;
52186;SDS011;38161;53.020;6.598;2023-12-20T00:06:15;14.53;;;4.10;;
52186;SDS011;38161;53.020;6.598;2023-12-20T00:08:41;13.40;;;2.90;;
52186;SDS011;38161;53.020;6.598;2023-12-20T00:11:07;10.60;;;2.97;;
52186;SDS011;38161;53.020;6.598;2023-12-20T00:13:32;19.00;;;3.88;;
52186;SDS011;38161;53.020;6.598;2023-12-20T00:15:58;9.63;;;3.03;;
52186;SDS011;38161;53.020;6.598;2023-12-20T00:18:24;11.60;;;5.17;;
52186;SDS011;38161;53.020;6.598;2023-12-20T00:20:49;37.47;;;19.50;;
52186;SDS011;38161;53.020;6.598;2023-12-20T00:23:15;41.25;;;18.80;;
52186;SDS011;38161;53.020;6.598;2023-12-20T00:25:41;20.07;;;5.77;;
52186;SDS011;38161;53.020;6.598;2023-12-20T00:28:07;25.30;;;7.77;;
52186;SDS011;38161;53.020;6.598;2023-12-20T00:30:33;25.60;;;10.63;;
52186;SDS011;38161;53.020;6.598;2023-12-20T00:32:58;24.30;;;12.37;;
52186;SDS011;38161;53.020;6.598;2023-12-20T00:35:24;25.20;;;9.90;;
52186;SDS011;38161;53.020;6.598;2023-12-20T00:37:50;17.98;;;6.30;;
52186;SDS011;38161;53.020;6.598;2023-12-20T00:40:15;14.60;;;4.75;;
52186;SDS011;38161;53.020;6.598;2023-12-20T00:42:41;16.17;;;5.18;;
52186;SDS011;38161;53.020;6.598;2023-12-20T00:45:07;20.20;;;4.07;;
52186;SDS011;38161;53.020;6.598;2023-12-20T00:47:33;15.32;;;6.18;;
52186;SDS011;38161;53.020;6.598;2023-12-20T00:49:59;11.52;;;5.03;;
52186;SDS011;38161;53.020;6.598;2023-12-20T00:52:25;15.25;;;6.50;;
52186;SDS011;38161;53.020;6.598;2023-12-20T00:54:51;16.35;;;5.63;;
52186;SDS011;38161;53.020;6.598;2023-12-20T00:57:17;16.48;;;6.63;;
52186;SDS011;38161;53.020;6.598;2023-12-20T00:59:43;23.55;;;11.15;;
52186;SDS011;38161;53.020;6.598;2023-12-20T01:02:08;14.97;;;5.43;;
52186;SDS011;38161;53.020;6.598;2023-12-20T01:04:35;18.15;;;7.22;;
52186;SDS011;38161;53.020;6.598;2023-12-20T01:07:01;23.92;;;7.15;;
52186;SDS011;38161;53.020;6.598;2023-12-20T01:09:27;14.00;;;4.65;;
52186;SDS011;38161;53.020;6.598;2023-12-20T01:11:53;14.77;;;4.53;;
52186;SDS011;38161;53.020;6.598;2023-12-20T01:14:19;13.13;;;3.42;;
52186;SDS011;38161;53.020;6.598;2023-12-20T01:16:44;22.63;;;9.30;;
52186;SDS011;38161;53.020;6.598;2023-12-20T01:19:10;12.07;;;3.47;;
52186;SDS011;38161;53.020;6.598;2023-12-20T01:21:36;16.88;;;4.65;;
52186;SDS011;38161;53.020;6.598;2023-12-20T01:24:02;13.23;;;3.90;;
52186;SDS011;38161;53.020;6.598;2023-12-20T01:26:28;20.08;;;5.45;;
52186;SDS011;38161;53.020;6.598;2023-12-20T01:28:54;41.43;;;19.97;;
52186;SDS011;38161;53.020;6.598;2023-12-20T01:31:19;16.37;;;5.43;;
52186;SDS011;38161;53.020;6.598;2023-12-20T01:33:45;15.30;;;5.23;;
52186;SDS011;38161;53.020;6.598;2023-12-20T01:36:11;24.67;;;8.20;;
52186;SDS011;38161;53.020;6.598;2023-12-20T01:38:37;19.00;;;7.50;;
52186;SDS011;38161;53.020;6.598;2023-12-20T01:41:03;15.23;;;6.80;;
52186;SDS011;38161;53.020;6.598;2023-12-20T01:43:29;26.88;;;7.90;;
52186;SDS011;38161;53.020;6.598;2023-12-20T01:45:55;15.73;;;4.13;;
52186;SDS011;38161;53.020;6.598;2023-12-20T01:48:25;16.42;;;4.90;;
52186;SDS011;38161;53.020;6.598;2023-12-20T01:50:52;17.30;;;4.65;;
52186;SDS011;38161;53.020;6.598;2023-12-20T01:53:19;11.73;;;3.50;;
52186;SDS011;38161;53.020;6.598;2023-12-20T01:55:46;10.32;;;3.70;;
52186;SDS011;38161;53.020;6.598;2023-12-20T01:58:15;18.90;;;5.53;;
52186;SDS011;38161;53.020;6.598;2023-12-20T02:00:42;14.68;;;7.25;;
52186;SDS011;38161;53.020;6.598;2023-12-20T02:03:07;16.13;;;4.38;;
52186;SDS011;38161;53.020;6.598;2023-12-20T02:05:34;17.15;;;3.78;;
52186;SDS011;38161;53.020;6.598;2023-12-20T02:08:01;21.33;;;4.13;;
52186;SDS011;38161;53.020;6.598;2023-12-20T02:10:27;15.30;;;4.60;;
52186;SDS011;38161;53.020;6.598;2023-12-20T02:12:54;13.00;;;4.50;;
52186;SDS011;38161;53.020;6.598;2023-12-20T02:15:20;11.45;;;3.10;;
52186;SDS011;38161;53.020;6.598;2023-12-20T02:17:46;14.93;;;3.72;;
52186;SDS011;38161;53.020;6.598;2023-12-20T02:20:13;16.40;;;3.33;;
52186;SDS011;38161;53.020;6.598;2023-12-20T02:22:39;18.90;;;3.30;;
52186;SDS011;38161;53.020;6.598;2023-12-20T02:25:05;11.30;;;2.80;;
52186;SDS011;38161;53.020;6.598;2023-12-20T02:27:31;14.98;;;3.22;;
52186;SDS011;38161;53.020;6.598;2023-12-20T02:29:57;16.87;;;2.70;;
52186;SDS011;38161;53.020;6.598;2023-12-20T02:32:24;15.93;;;2.85;;
52186;SDS011;38161;53.020;6.598;2023-12-20T02:34:53;10.02;;;2.45;;
52186;SDS011;38161;53.020;6.598;2023-12-20T02:37:19;15.48;;;3.40;;
52186;SDS011;38161;53.020;6.598;2023-12-20T02:39:45;16.07;;;2.80;;
52186;SDS011;38161;53.020;6.598;2023-12-20T02:42:11;16.87;;;2.93;;
52186;SDS011;38161;53.020;6.598;2023-12-20T02:44:37;20.97;;;2.97;;
52186;SDS011;38161;53.020;6.598;2023-12-20T02:47:02;14.93;;;2.87;;
52186;SDS011;38161;53.020;6.598;2023-12-20T02:49:28;19.45;;;3.47;;
52186;SDS011;38161;53.020;6.598;2023-12-20T02:51:54;20.20;;;3.17;;
52186;SDS011;38161;53.020;6.598;2023-12-20T02:54:20;12.43;;;3.20;;
52186;SDS011;38161;53.020;6.598;2023-12-20T02:56:46;18.25;;;5.10;;
52186;SDS011;38161;53.020;6.598;2023-12-20T02:59:12;14.38;;;4.03;;
52186;SDS011;38161;53.020;6.598;2023-12-20T03:01:44;22.10;;;5.00;;
52186;SDS011;38161;53.020;6.598;2023-12-20T03:04:11;19.00;;;4.50;;
52186;SDS011;38161;53.020;6.598;2023-12-20T03:06:37;19.40;;;5.00;;
52186;SDS011;38161;53.020;6.598;2023-12-20T03:09:03;13.98;;;3.40;;
52186;SDS011;38161;53.020;6.598;2023-12-20T03:11:29;16.58;;;3.60;;
52186;SDS011;38161;53.020;6.598;2023-12-20T03:13:56;21.65;;;4.13;;
52186;SDS011;38161;53.020;6.598;2023-12-20T03:16:22;23.92;;;4.50;;
52186;SDS011;38161;53.020;6.598;2023-12-20T03:18:48;12.65;;;3.70;;
52186;SDS011;38161;53.020;6.598;2023-12-20T03:21:14;22.35;;;4.00;;
52186;SDS011;38161;53.020;6.598;2023-12-20T03:23:40;19.77;;;3.85;;
52186;SDS011;38161;53.020;6.598;2023-12-20T03:26:06;18.25;;;3.88;;
52186;SDS011;38161;53.020;6.598;2023-12-20T03:28:33;16.77;;;3.08;;
52186;SDS011;38161;53.020;6.598;2023-12-20T03:30:59;13.45;;;3.75;;
52186;SDS011;38161;53.020;6.598;2023-12-20T03:33:25;18.75;;;3.30;;
52186;SDS011;38161;53.020;6.598;2023-12-20T03:35:51;16.63;;;3.60;;
52186;SDS011;38161;53.020;6.598;2023-12-20T03:38:17;16.90;;;3.27;;
52186;SDS011;38161;53.020;6.598;2023-12-20T03:40:42;15.40;;;3.37;;
52186;SDS011;38161;53.020;6.598;2023-12-20T03:43:08;18.37;;;3.30;;
52186;SDS011;38161;53.020;6.598;2023-12-20T03:45:34;19.00;;;3.87;;
52186;SDS011;38161;53.020;6.598;2023-12-20T03:47:59;19.43;;;4.10;;
52186;SDS011;38161;53.020;6.598;2023-12-20T03:50:25;20.60;;;3.77;;
52186;SDS011;38161;53.020;6.598;2023-12-20T03:52:51;20.55;;;4.40;;
52186;SDS011;38161;53.020;6.598;2023-12-20T03:55:17;20.92;;;4.00;;
52186;SDS011;38161;53.020;6.598;2023-12-20T03:57:43;14.77;;;3.47;;
52186;SDS011;38161;53.020;6.598;2023-12-20T04:00:09;18.92;;;3.42;;
52186;SDS011;38161;53.020;6.598;2023-12-20T04:02:39;18.10;;;3.38;;
52186;SDS011;38161;53.020;6.598;2023-12-20T04:05:06;21.33;;;4.18;;
52186;SDS011;38161;53.020;6.598;2023-12-20T04:07:33;26.75;;;4.75;;
52186;SDS011;38161;53.020;6.598;2023-12-20T04:09:59;20.98;;;4.15;;
52186;SDS011;38161;53.020;6.598;2023-12-20T04:12:25;18.50;;;3.55;;
52186;SDS011;38161;53.020;6.598;2023-12-20T04:14:52;17.25;;;3.67;;
52186;SDS011;38161;53.020;6.598;2023-12-20T04:17:18;26.37;;;3.73;;
52186;SDS011;38161;53.020;6.598;2023-12-20T04:19:44;18.75;;;3.63;;
52186;SDS011;38161;53.020;6.598;2023-12-20T04:22:09;21.10;;;4.07;;
52186;SDS011;38161;53.020;6.598;2023-12-20T04:24:35;18.47;;;4.07;;
52186;SDS011;38161;53.020;6.598;2023-12-20T04:27:01;16.53;;;3.20;;
52186;SDS011;38161;53.020;6.598;2023-12-20T04:29:27;18.90;;;4.00;;
52186;SDS011;38161;53.020;6.598;2023-12-20T04:31:53;17.45;;;3.85;;
52186;SDS011;38161;53.020;6.598;2023-12-20T04:34:19;23.52;;;4.05;;
52186;SDS011;38161;53.020;6.598;2023-12-20T04:36:45;22.45;;;4.05;;
52186;SDS011;38161;53.020;6.598;2023-12-20T04:39:12;17.63;;;3.85;;
52186;SDS011;38161;53.020;6.598;2023-12-20T04:41:39;22.08;;;4.00;;
52186;SDS011;38161;53.020;6.598;2023-12-20T04:44:05;18.90;;;3.87;;
52186;SDS011;38161;53.020;6.598;2023-12-20T04:46:31;24.48;;;4.38;;
52186;SDS011;38161;53.020;6.598;2023-12-20T04:48:57;19.33;;;4.07;;
52186;SDS011;38161;53.020;6.598;2023-12-20T04:51:23;17.13;;;3.70;;
52186;SDS011;38161;53.020;6.598;2023-12-20T04:53:49;20.23;;;3.20;;
52186;SDS011;38161;53.020;6.598;2023-12-20T04:56:15;17.50;;;3.45;;
52186;SDS011;38161;53.020;6.598;2023-12-20T04:58:41;15.25;;;3.40;;
52186;SDS011;38161;53.020;6.598;2023-12-20T05:01:08;17.67;;;3.60;;
52186;SDS011;38161;53.020;6.598;2023-12-20T05:06:00;21.00;;;3.97;;
52186;SDS011;38161;53.020;6.598;2023-12-20T05:08:26;26.23;;;3.90;;
52186;SDS011;38161;53.020;6.598;2023-12-20T05:10:53;25.63;;;3.83;;
52186;SDS011;38161;53.020;6.598;2023-12-20T05:13:19;17.40;;;3.95;;
52186;SDS011;38161;53.020;6.598;2023-12-20T05:15:45;19.42;;;4.05;;
52186;SDS011;38161;53.020;6.598;2023-12-20T05:18:12;22.15;;;4.18;;
52186;SDS011;38161;53.020;6.598;2023-12-20T05:20:38;16.98;;;4.38;;
52186;SDS011;38161;53.020;6.598;2023-12-20T05:23:04;16.50;;;4.03;;
52186;SDS011;38161;53.020;6.598;2023-12-20T05:25:30;17.77;;;4.05;;
52186;SDS011;38161;53.020;6.598;2023-12-20T05:27:55;20.97;;;4.00;;
52186;SDS011;38161;53.020;6.598;2023-12-20T05:30:21;21.23;;;4.47;;
52186;SDS011;38161;53.020;6.598;2023-12-20T05:32:47;18.30;;;4.35;;
52186;SDS011;38161;53.020;6.598;2023-12-20T05:35:13;19.73;;;3.70;;
52186;SDS011;38161;53.020;6.598;2023-12-20T05:37:39;16.52;;;3.42;;
52186;SDS011;38161;53.020;6.598;2023-12-20T05:40:05;18.37;;;3.80;;
52186;SDS011;38161;53.020;6.598;2023-12-20T05:42:31;14.88;;;2.90;;
52186;SDS011;38161;53.020;6.598;2023-12-20T05:44:57;19.80;;;3.47;;
52186;SDS011;38161;53.020;6.598;2023-12-20T05:47:22;21.10;;;3.33;;
52186;SDS011;38161;53.020;6.598;2023-12-20T05:49:48;12.77;;;2.90;;
52186;SDS011;38161;53.020;6.598;2023-12-20T05:52:15;18.83;;;3.17;;
52186;SDS011;38161;53.020;6.598;2023-12-20T05:54:41;22.73;;;3.83;;
52186;SDS011;38161;53.020;6.598;2023-12-20T05:57:07;23.00;;;4.35;;
52186;SDS011;38161;53.020;6.598;2023-12-20T05:59:33;19.70;;;3.57;;
52186;SDS011;38161;53.020;6.598;2023-12-20T06:01:58;21.17;;;3.67;;
52186;SDS011;38161;53.020;6.598;2023-12-20T06:04:24;19.60;;;4.17;;
52186;SDS011;38161;53.020;6.598;2023-12-20T06:06:50;20.83;;;3.60;;
52186;SDS011;38161;53.020;6.598;2023-12-20T06:09:15;21.63;;;3.77;;
52186;SDS011;38161;53.020;6.598;2023-12-20T06:11:41;25.17;;;4.77;;
52186;SDS011;38161;53.020;6.598;2023-12-20T06:14:07;19.80;;;4.35;;
52186;SDS011;38161;53.020;6.598;2023-12-20T06:16:33;20.93;;;3.73;;
52186;SDS011;38161;53.020;6.598;2023-12-20T06:18:58;23.10;;;3.90;;
52186;SDS011;38161;53.020;6.598;2023-12-20T06:21:24;18.00;;;4.15;;
52186;SDS011;38161;53.020;6.598;2023-12-20T06:23:50;19.07;;;4.60;;
52186;SDS011;38161;53.020;6.598;2023-12-20T06:26:16;22.23;;;4.67;;
52186;SDS011;38161;53.020;6.598;2023-12-20T06:28:41;14.83;;;3.23;;
52186;SDS011;38161;53.020;6.598;2023-12-20T06:31:07;16.05;;;3.75;;
52186;SDS011;38161;53.020;6.598;2023-12-20T06:33:33;22.65;;;3.80;;
52186;SDS011;38161;53.020;6.598;2023-12-20T06:35:59;20.03;;;4.20;;
52186;SDS011;38161;53.020;6.598;2023-12-20T06:38:26;19.55;;;3.72;;
52186;SDS011;38161;53.020;6.598;2023-12-20T06:40:52;22.88;;;3.28;;
52186;SDS011;38161;53.020;6.598;2023-12-20T06:43:17;19.87;;;3.67;;
52186;SDS011;38161;53.020;6.598;2023-12-20T06:45:43;20.98;;;4.05;;
52186;SDS011;38161;53.020;6.598;2023-12-20T06:48:09;19.43;;;4.03;;
52186;SDS011;38161;53.020;6.598;2023-12-20T06:50:37;19.50;;;3.70;;
52186;SDS011;38161;53.020;6.598;2023-12-20T06:53:05;15.55;;;3.78;;
52186;SDS011;38161;53.020;6.598;2023-12-20T06:55:32;15.77;;;3.20;;
52186;SDS011;38161;53.020;6.598;2023-12-20T06:58:00;17.20;;;3.50;;
52186;SDS011;38161;53.020;6.598;2023-12-20T07:00:26;15.18;;;3.97;;
52186;SDS011;38161;53.020;6.598;2023-12-20T07:02:52;17.10;;;3.50;;
52186;SDS011;38161;53.020;6.598;2023-12-20T07:05:18;13.77;;;3.10;;
52186;SDS011;38161;53.020;6.598;2023-12-20T07:07:45;14.85;;;3.45;;
52186;SDS011;38161;53.020;6.598;2023-12-20T07:10:12;19.25;;;3.40;;
52186;SDS011;38161;53.020;6.598;2023-12-20T07:12:38;24.50;;;4.38;;
52186;SDS011;38161;53.020;6.598;2023-12-20T07:15:04;19.07;;;3.20;;
52186;SDS011;38161;53.020;6.598;2023-12-20T07:17:33;22.20;;;3.83;;
52186;SDS011;38161;53.020;6.598;2023-12-20T07:19:59;20.75;;;3.92;;
52186;SDS011;38161;53.020;6.598;2023-12-20T07:22:29;15.65;;;3.58;;
52186;SDS011;38161;53.020;6.598;2023-12-20T07:24:57;17.40;;;3.83;;
52186;SDS011;38161;53.020;6.598;2023-12-20T07:27:26;19.77;;;3.65;;
52186;SDS011;38161;53.020;6.598;2023-12-20T07:29:52;12.73;;;3.38;;
52186;SDS011;38161;53.020;6.598;2023-12-20T07:32:18;25.02;;;3.92;;
52186;SDS011;38161;53.020;6.598;2023-12-20T07:34:44;19.20;;;3.45;;
52186;SDS011;38161;53.020;6.598;2023-12-20T07:37:10;15.57;;;3.80;;
52186;SDS011;38161;53.020;6.598;2023-12-20T07:39:40;17.67;;;4.05;;
52186;SDS011;38161;53.020;6.598;2023-12-20T07:42:06;18.67;;;3.47;;
52186;SDS011;38161;53.020;6.598;2023-12-20T07:44:33;21.58;;;3.72;;
52186;SDS011;38161;53.020;6.598;2023-12-20T07:46:59;14.77;;;3.47;;
52186;SDS011;38161;53.020;6.598;2023-12-20T07:49:26;19.08;;;3.67;;
52186;SDS011;38161;53.020;6.598;2023-12-20T07:51:51;16.63;;;3.70;;
52186;SDS011;38161;53.020;6.598;2023-12-20T07:54:17;21.13;;;3.83;;
52186;SDS011;38161;53.020;6.598;2023-12-20T07:56:43;21.20;;;4.27;;
52186;SDS011;38161;53.020;6.598;2023-12-20T07:59:09;15.13;;;3.53;;
52186;SDS011;38161;53.020;6.598;2023-12-20T08:01:34;13.05;;;3.55;;
52186;SDS011;38161;53.020;6.598;2023-12-20T08:04:01;20.98;;;3.97;;
52186;SDS011;38161;53.020;6.598;2023-12-20T08:06:26;20.50;;;3.47;;
52186;SDS011;38161;53.020;6.598;2023-12-20T08:08:52;24.15;;;5.25;;
52186;SDS011;38161;53.020;6.598;2023-12-20T08:11:18;21.80;;;4.20;;
52186;SDS011;38161;53.020;6.598;2023-12-20T08:13:44;14.93;;;4.25;;
52186;SDS011;38161;53.020;6.598;2023-12-20T08:16:10;27.67;;;4.13;;
52186;SDS011;38161;53.020;6.598;2023-12-20T08:18:38;25.13;;;5.25;;
52186;SDS011;38161;53.020;6.598;2023-12-20T08:21:04;24.42;;;4.50;;
52186;SDS011;38161;53.020;6.598;2023-12-20T08:23:32;20.88;;;4.25;;
52186;SDS011;38161;53.020;6.598;2023-12-20T08:26:03;19.45;;;3.78;;
52186;SDS011;38161;53.020;6.598;2023-12-20T08:28:32;13.90;;;3.85;;
52186;SDS011;38161;53.020;6.598;2023-12-20T08:30:58;13.57;;;3.30;;
52186;SDS011;38161;53.020;6.598;2023-12-20T08:33:24;14.95;;;3.80;;
52186;SDS011;38161;53.020;6.598;2023-12-20T08:35:50;16.58;;;2.83;;
52186;SDS011;38161;53.020;6.598;2023-12-20T08:38:15;14.10;;;3.20;;
52186;SDS011;38161;53.020;6.598;2023-12-20T08:40:42;12.43;;;2.42;;
52186;SDS011;38161;53.020;6.598;2023-12-20T08:43:09;7.78;;;2.38;;
52186;SDS011;38161;53.020;6.598;2023-12-20T08:45:34;9.85;;;2.75;;
52186;SDS011;38161;53.020;6.598;2023-12-20T08:48:00;11.10;;;2.25;;
52186;SDS011;38161;53.020;6.598;2023-12-20T08:50:26;10.45;;;2.70;;
52186;SDS011;38161;53.020;6.598;2023-12-20T08:52:52;11.77;;;3.03;;
52186;SDS011;38161;53.020;6.598;2023-12-20T08:55:19;16.33;;;3.40;;
52186;SDS011;38161;53.020;6.598;2023-12-20T08:57:45;12.73;;;2.90;;
52186;SDS011;38161;53.020;6.598;2023-12-20T09:00:11;11.37;;;3.60;;
52186;SDS011;38161;53.020;6.598;2023-12-20T09:05:04;19.90;;;3.50;;
52186;SDS011;38161;53.020;6.598;2023-12-20T09:07:30;19.35;;;3.88;;
52186;SDS011;38161;53.020;6.598;2023-12-20T09:09:57;19.73;;;3.75;;
52186;SDS011;38161;53.020;6.598;2023-12-20T09:12:23;14.48;;;4.20;;
52186;SDS011;38161;53.020;6.598;2023-12-20T09:14:49;16.65;;;3.20;;
52186;SDS011;38161;53.020;6.598;2023-12-20T09:17:16;17.60;;;3.83;;
52186;SDS011;38161;53.020;6.598;2023-12-20T09:19:43;22.58;;;3.88;;
52186;SDS011;38161;53.020;6.598;2023-12-20T09:24:35;11.93;;;3.00;;
52186;SDS011;38161;53.020;6.598;2023-12-20T09:27:01;15.23;;;3.80;;
52186;SDS011;38161;53.020;6.598;2023-12-20T09:29:27;10.98;;;1.92;;
52186;SDS011;38161;53.020;6.598;2023-12-20T09:31:53;10.70;;;2.38;;
52186;SDS011;38161;53.020;6.598;2023-12-20T09:34:19;6.57;;;1.27;;
52186;SDS011;38161;53.020;6.598;2023-12-20T09:36:46;7.85;;;1.63;;
52186;SDS011;38161;53.020;6.598;2023-12-20T09:39:16;3.58;;;1.08;;
52186;SDS011;38161;53.020;6.598;2023-12-20T09:41:51;4.82;;;0.90;;
52186;SDS011;38161;53.020;6.598;2023-12-20T09:44:23;4.60;;;0.95;;
52186;SDS011;38161;53.020;6.598;2023-12-20T09:46:49;6.30;;;1.00;;
52186;SDS011;38161;53.020;6.598;2023-12-20T09:49:17;5.97;;;1.20;;
52186;SDS011;38161;53.020;6.598;2023-12-20T09:51:44;5.05;;;1.15;;
52186;SDS011;38161;53.020;6.598;2023-12-20T09:54:12;8.45;;;1.13;;
52186;SDS011;38161;53.020;6.598;2023-12-20T09:56:40;8.45;;;1.10;;
52186;SDS011;38161;53.020;6.598;2023-12-20T09:59:06;8.13;;;2.50;;
52186;SDS011;38161;53.020;6.598;2023-12-20T10:01:31;4.80;;;1.63;;
52186;SDS011;38161;53.020;6.598;2023-12-20T10:03:59;11.00;;;1.75;;
52186;SDS011;38161;53.020;6.598;2023-12-20T10:06:26;2.72;;;0.82;;
52186;SDS011;38161;53.020;6.598;2023-12-20T10:08:52;8.83;;;1.40;;
52186;SDS011;38161;53.020;6.598;2023-12-20T10:11:18;10.27;;;1.48;;
52186;SDS011;38161;53.020;6.598;2023-12-20T10:13:44;6.45;;;1.10;;
52186;SDS011;38161;53.020;6.598;2023-12-20T10:16:13;8.55;;;1.42;;
52186;SDS011;38161;53.020;6.598;2023-12-20T10:18:39;7.22;;;1.50;;
52186;SDS011;38161;53.020;6.598;2023-12-20T10:21:05;5.73;;;1.37;;
52186;SDS011;38161;53.020;6.598;2023-12-20T10:23:31;12.35;;;2.38;;
52186;SDS011;38161;53.020;6.598;2023-12-20T10:25:57;6.73;;;1.37;;
52186;SDS011;38161;53.020;6.598;2023-12-20T10:28:26;10.90;;;2.17;;
52186;SDS011;38161;53.020;6.598;2023-12-20T10:30:57;10.18;;;1.67;;
52186;SDS011;38161;53.020;6.598;2023-12-20T10:33:32;6.43;;;1.53;;
52186;SDS011;38161;53.020;6.598;2023-12-20T10:35:58;7.10;;;2.05;;
52186;SDS011;38161;53.020;6.598;2023-12-20T10:38:23;8.43;;;2.67;;
52186;SDS011;38161;53.020;6.598;2023-12-20T10:40:49;7.30;;;1.70;;
52186;SDS011;38161;53.020;6.598;2023-12-20T10:43:22;6.53;;;1.75;;
52186;SDS011;38161;53.020;6.598;2023-12-20T10:45:51;8.65;;;1.75;;
52186;SDS011;38161;53.020;6.598;2023-12-20T10:48:17;10.88;;;1.80;;
52186;SDS011;38161;53.020;6.598;2023-12-20T10:50:44;10.32;;;1.80;;
52186;SDS011;38161;53.020;6.598;2023-12-20T10:53:10;9.80;;;2.03;;
52186;SDS011;38161;53.020;6.598;2023-12-20T10:55:38;9.65;;;1.60;;
52186;SDS011;38161;53.020;6.598;2023-12-20T10:58:07;9.45;;;1.95;;
52186;SDS011;38161;53.020;6.598;2023-12-20T11:00:35;12.32;;;2.40;;
52186;SDS011;38161;53.020;6.598;2023-12-20T11:03:08;5.60;;;1.67;;
52186;SDS011;38161;53.020;6.598;2023-12-20T11:05:53;6.40;;;1.80;;
52186;SDS011;38161;53.020;6.598;2023-12-20T11:11:06;7.97;;;1.63;;
52186;SDS011;38161;53.020;6.598;2023-12-20T11:13:40;7.55;;;1.50;;
52186;SDS011;38161;53.020;6.598;2023-12-20T11:16:13;6.88;;;1.70;;
52186;SDS011;38161;53.020;6.598;2023-12-20T11:18:40;9.43;;;2.40;;
52186;SDS011;38161;53.020;6.598;2023-12-20T11:21:06;8.88;;;1.92;;
52186;SDS011;38161;53.020;6.598;2023-12-20T11:23:32;10.25;;;2.00;;
52186;SDS011;38161;53.020;6.598;2023-12-20T11:26:01;8.52;;;2.03;;
52186;SDS011;38161;53.020;6.598;2023-12-20T11:28:28;9.30;;;1.90;;
52186;SDS011;38161;53.020;6.598;2023-12-20T11:30:57;8.50;;;2.00;;
52186;SDS011;38161;53.020;6.598;2023-12-20T11:33:26;12.82;;;2.20;;
52186;SDS011;38161;53.020;6.598;2023-12-20T11:35:55;8.57;;;2.25;;
52186;SDS011;38161;53.020;6.598;2023-12-20T11:38:22;8.48;;;2.10;;
52186;SDS011;38161;53.020;6.598;2023-12-20T11:40:49;11.98;;;2.45;;
52186;SDS011;38161;53.020;6.598;2023-12-20T11:43:31;9.50;;;2.00;;
52186;SDS011;38161;53.020;6.598;2023-12-20T11:46:03;4.85;;;1.40;;
52186;SDS011;38161;53.020;6.598;2023-12-20T11:48:39;11.25;;;1.65;;
52186;SDS011;38161;53.020;6.598;2023-12-20T11:51:09;8.52;;;1.77;;
52186;SDS011;38161;53.020;6.598;2023-12-20T11:53:37;6.53;;;1.88;;
52186;SDS011;38161;53.020;6.598;2023-12-20T11:56:04;11.02;;;2.05;;
52186;SDS011;38161;53.020;6.598;2023-12-20T11:58:33;10.73;;;2.00;;
52186;SDS011;38161;53.020;6.598;2023-12-20T12:00:59;15.45;;;3.20;;
52186;SDS011;38161;53.020;6.598;2023-12-20T12:03:25;13.68;;;3.22;;
52186;SDS011;38161;53.020;6.598;2023-12-20T12:05:51;11.48;;;1.80;;
52186;SDS011;38161;53.020;6.598;2023-12-20T12:08:17;9.83;;;2.07;;
52186;SDS011;38161;53.020;6.598;2023-12-20T12:10:45;7.73;;;2.13;;
52186;SDS011;38161;53.020;6.598;2023-12-20T12:13:11;11.32;;;2.40;;
52186;SDS011;38161;53.020;6.598;2023-12-20T12:15:39;12.25;;;2.80;;
52186;SDS011;38161;53.020;6.598;2023-12-20T12:18:06;17.80;;;2.40;;
52186;SDS011;38161;53.020;6.598;2023-12-20T12:20:33;9.98;;;1.85;;
52186;SDS011;38161;53.020;6.598;2023-12-20T12:23:01;15.63;;;2.17;;
52186;SDS011;38161;53.020;6.598;2023-12-20T12:25:29;9.60;;;1.58;;
52186;SDS011;38161;53.020;6.598;2023-12-20T12:27:56;9.32;;;2.00;;
52186;SDS011;38161;53.020;6.598;2023-12-20T12:30:25;13.45;;;2.10;;
52186;SDS011;38161;53.020;6.598;2023-12-20T12:32:52;10.40;;;2.65;;
52186;SDS011;38161;53.020;6.598;2023-12-20T12:35:18;9.73;;;3.00;;
52186;SDS011;38161;53.020;6.598;2023-12-20T12:37:44;9.43;;;2.60;;
52186;SDS011;38161;53.020;6.598;2023-12-20T12:40:11;9.82;;;2.80;;
52186;SDS011;38161;53.020;6.598;2023-12-20T12:42:38;16.15;;;4.32;;
52186;SDS011;38161;53.020;6.598;2023-12-20T12:45:05;8.65;;;2.20;;
52186;SDS011;38161;53.020;6.598;2023-12-20T12:47:32;21.50;;;5.35;;
52186;SDS011;38161;53.020;6.598;2023-12-20T12:52:25;14.10;;;5.00;;
52186;SDS011;38161;53.020;6.598;2023-12-20T12:54:51;16.30;;;4.15;;
52186;SDS011;38161;53.020;6.598;2023-12-20T12:57:18;15.40;;;3.85;;
52186;SDS011;38161;53.020;6.598;2023-12-20T12:59:44;13.07;;;3.88;;
52186;SDS011;38161;53.020;6.598;2023-12-20T13:02:14;19.88;;;5.97;;
52186;SDS011;38161;53.020;6.598;2023-12-20T13:04:40;23.15;;;10.30;;
52186;SDS011;38161;53.020;6.598;2023-12-20T13:07:07;16.80;;;4.90;;
52186;SDS011;38161;53.020;6.598;2023-12-20T13:09:35;16.85;;;3.00;;
52186;SDS011;38161;53.020;6.598;2023-12-20T13:12:01;11.50;;;3.17;;
52186;SDS011;38161;53.020;6.598;2023-12-20T13:14:29;10.18;;;2.63;;
52186;SDS011;38161;53.020;6.598;2023-12-20T13:16:58;10.55;;;2.10;;
52186;SDS011;38161;53.020;6.598;2023-12-20T13:19:23;11.18;;;2.55;;
52186;SDS011;38161;53.020;6.598;2023-12-20T13:21:49;17.57;;;4.77;;
52186;SDS011;38161;53.020;6.598;2023-12-20T13:24:15;12.20;;;2.60;;
52186;SDS011;38161;53.020;6.598;2023-12-20T13:26:41;13.17;;;2.90;;
52186;SDS011;38161;53.020;6.598;2023-12-20T13:29:06;12.33;;;3.40;;
52186;SDS011;38161;53.020;6.598;2023-12-20T13:31:32;10.93;;;2.30;;
52186;SDS011;38161;53.020;6.598;2023-12-20T13:33:58;10.30;;;2.55;;
52186;SDS011;38161;53.020;6.598;2023-12-20T13:36:24;11.27;;;2.83;;
52186;SDS011;38161;53.020;6.598;2023-12-20T13:38:50;13.55;;;2.25;;
52186;SDS011;38161;53.020;6.598;2023-12-20T13:41:15;11.52;;;2.20;;
52186;SDS011;38161;53.020;6.598;2023-12-20T13:43:41;9.63;;;2.13;;
52186;SDS011;38161;53.020;6.598;2023-12-20T13:46:08;10.35;;;2.42;;
52186;SDS011;38161;53.020;6.598;2023-12-20T13:48:34;9.60;;;2.22;;
52186;SDS011;38161;53.020;6.598;2023-12-20T13:51:00;13.38;;;2.22;;
52186;SDS011;38161;53.020;6.598;2023-12-20T13:53:28;5.90;;;2.10;;
52186;SDS011;38161;53.020;6.598;2023-12-20T13:55:54;8.87;;;2.10;;
52186;SDS011;38161;53.020;6.598;2023-12-20T13:58:20;8.43;;;2.20;;
52186;SDS011;38161;53.020;6.598;2023-12-20T14:00:45;9.73;;;2.30;;
52186;SDS011;38161;53.020;6.598;2023-12-20T14:03:11;13.30;;;3.53;;
52186;SDS011;38161;53.020;6.598;2023-12-20T14:05:37;10.27;;;2.70;;
52186;SDS011;38161;53.020;6.598;2023-12-20T14:08:03;6.07;;;1.60;;
52186;SDS011;38161;53.020;6.598;2023-12-20T14:10:29;7.57;;;1.90;;
52186;SDS011;38161;53.020;6.598;2023-12-20T14:12:55;6.07;;;1.42;;
52186;SDS011;38161;53.020;6.598;2023-12-20T14:15:21;8.32;;;1.13;;
52186;SDS011;38161;53.020;6.598;2023-12-20T14:17:46;8.55;;;1.52;;
52186;SDS011;38161;53.020;6.598;2023-12-20T14:20:12;8.93;;;1.30;;
52186;SDS011;38161;53.020;6.598;2023-12-20T14:22:38;8.27;;;1.23;;
52186;SDS011;38161;53.020;6.598;2023-12-20T14:25:10;9.07;;;3.03;;
52186;SDS011;38161;53.020;6.598;2023-12-20T14:27:37;5.57;;;1.73;;
52186;SDS011;38161;53.020;6.598;2023-12-20T14:30:04;5.72;;;1.48;;
52186;SDS011;38161;53.020;6.598;2023-12-20T14:32:31;9.25;;;1.95;;
52186;SDS011;38161;53.020;6.598;2023-12-20T14:34:57;8.20;;;2.08;;
52186;SDS011;38161;53.020;6.598;2023-12-20T14:37:23;14.90;;;2.57;;
52186;SDS011;38161;53.020;6.598;2023-12-20T14:39:48;5.83;;;1.63;;
52186;SDS011;38161;53.020;6.598;2023-12-20T14:42:14;5.55;;;1.50;;
52186;SDS011;38161;53.020;6.598;2023-12-20T14:44:40;4.83;;;1.70;;
52186;SDS011;38161;53.020;6.598;2023-12-20T14:47:06;8.80;;;1.98;;